createdAt,value
2022-10-11T00:03:37.305Z,65.90
2022-10-11T00:07:20.063Z,66.20
2022-10-11T00:11:05.853Z,66.20
2022-10-11T00:14:47.555Z,67.80
2022-10-11T00:18:29.369Z,66.70
2022-10-11T00:22:11.131Z,66.90
2022-10-11T00:26:04.964Z,67.30
2022-10-11T00:29:47.086Z,71.90
2022-10-11T00:33:28.834Z,67.60
2022-10-11T00:37:11.049Z,68.10
2022-10-11T00:40:52.989Z,68.20
2022-10-11T00:44:34.894Z,68.10
2022-10-11T00:48:27.652Z,68.40
2022-10-11T00:52:16.979Z,71.20
2022-10-11T00:56:09.566Z,71.80
2022-10-11T00:59:54.898Z,73.10
2022-10-11T01:03:40.532Z,70.40
2022-10-11T01:07:22.402Z,70.90
2022-10-11T01:11:04.467Z,69.80
2022-10-11T01:15:13.975Z,70.40
2022-10-11T01:19:26.561Z,75.20
2022-10-11T01:23:20.408Z,76.00
2022-10-11T01:27:36.345Z,74.70
2022-10-11T01:31:25.947Z,77.40
2022-10-11T01:35:15.731Z,75.30
2022-10-11T01:39:06.562Z,71.00
2022-10-11T01:42:49.515Z,74.20
2022-10-11T01:46:32.847Z,72.50
2022-10-11T01:50:34.871Z,72.50
2022-10-11T01:55:08.294Z,79.20
2022-10-11T01:59:03.997Z,79.40
2022-10-11T02:03:10.213Z,77.10
2022-10-11T02:06:57.657Z,78.70
2022-10-11T02:10:58.581Z,77.10
2022-10-11T02:14:45.270Z,73.50
2022-10-11T02:18:33.120Z,77.30
2022-10-11T02:22:26.360Z,77.50
2022-10-11T02:26:11.205Z,79.90
2022-10-11T02:29:55.477Z,77.20
2022-10-11T02:33:55.587Z,76.70
2022-10-11T02:37:37.270Z,82.60
2022-10-11T02:41:28.120Z,75.40
2022-10-11T02:45:49.890Z,75.70
2022-10-11T02:49:32.138Z,84.40
2022-10-11T02:53:13.859Z,76.50
2022-10-11T02:56:55.645Z,76.60
2022-10-11T03:00:37.389Z,77.20
2022-10-11T03:04:19.129Z,77.60
2022-10-11T03:08:00.842Z,78.10
2022-10-11T03:11:42.691Z,78.40
2022-10-11T03:15:24.590Z,78.60
2022-10-11T03:19:06.507Z,78.80
2022-10-11T03:22:48.225Z,79.00
2022-10-11T03:26:29.951Z,79.10
2022-10-11T03:30:17.338Z,79.20
2022-10-11T03:33:59.907Z,79.90
2022-10-11T03:37:41.698Z,80.00
2022-10-11T03:41:23.489Z,80.30
2022-10-11T03:45:08.201Z,80.40
2022-10-11T03:48:50.574Z,82.00
2022-10-11T03:52:32.285Z,80.90
2022-10-11T03:56:15.387Z,81.10
2022-10-11T03:59:57.851Z,81.40
2022-10-11T04:03:39.624Z,81.80
2022-10-11T04:07:21.664Z,81.80
2022-10-11T04:11:03.554Z,82.00
2022-10-11T04:14:45.529Z,82.40
2022-10-11T04:18:27.247Z,82.70
2022-10-11T04:22:09.084Z,83.10
2022-10-11T04:25:51.183Z,83.50
2022-10-11T04:29:33.219Z,83.80
2022-10-11T04:33:15.010Z,84.10
2022-10-11T04:36:56.762Z,84.20
2022-10-11T04:40:38.532Z,84.40
2022-10-11T04:44:20.289Z,84.80
2022-10-11T04:48:02.114Z,85.20
2022-10-11T04:51:43.866Z,85.40
2022-10-11T04:55:25.582Z,86.00
2022-10-11T04:59:08.021Z,86.30
2022-10-11T05:02:49.906Z,86.80
2022-10-11T05:06:31.659Z,86.70
2022-10-11T05:10:13.439Z,87.10
2022-10-11T05:13:56.615Z,87.70
2022-10-11T05:17:38.373Z,87.90
2022-10-11T05:21:25.562Z,88.10
2022-10-11T05:25:07.589Z,92.10
2022-10-11T05:28:49.675Z,88.70
2022-10-11T05:32:31.709Z,89.90
2022-10-11T05:36:13.575Z,89.20
2022-10-11T05:39:55.378Z,89.90
2022-10-11T05:43:37.277Z,90.00
2022-10-11T05:47:19.044Z,90.20
2022-10-11T05:51:03.083Z,90.30
2022-10-11T05:54:44.882Z,91.60
2022-10-11T05:58:26.959Z,90.60
2022-10-11T06:02:12.824Z,90.70
2022-10-11T06:05:56.984Z,93.20
2022-10-11T06:09:39.819Z,91.00
2022-10-11T06:13:21.597Z,91.40
2022-10-11T06:17:03.423Z,92.00
2022-10-11T06:20:45.202Z,92.00
2022-10-11T06:24:27.104Z,92.00
2022-10-11T06:28:08.893Z,92.00
2022-10-11T06:31:50.719Z,91.90
2022-10-11T06:35:32.566Z,92.00
2022-10-11T06:39:14.311Z,92.00
2022-10-11T06:43:03.328Z,92.20
2022-10-11T06:46:52.300Z,94.10
2022-10-11T06:50:59.136Z,93.80
2022-10-11T06:54:48.893Z,93.90
2022-10-11T06:58:38.417Z,94.00
2022-10-11T07:02:20.735Z,95.00
2022-10-11T07:06:09.126Z,93.20
2022-10-11T07:09:51.273Z,95.30
2022-10-11T07:13:33.047Z,94.10
2022-10-11T07:17:14.746Z,94.90
2022-10-11T07:20:57.077Z,94.80
2022-10-11T07:24:38.814Z,95.10
2022-10-11T07:28:21.863Z,95.30
2022-10-11T07:32:03.789Z,96.80
2022-10-11T07:35:48.692Z,96.70
2022-10-11T07:39:31.569Z,97.70
2022-10-11T07:43:14.033Z,97.20
2022-10-11T07:46:55.743Z,98.00
2022-10-11T07:50:37.795Z,97.60
2022-10-11T07:54:19.489Z,97.70
2022-10-11T07:58:01.305Z,98.20
2022-10-11T08:01:43.326Z,99.90
2022-10-11T08:05:25.155Z,99.90
2022-10-11T08:09:06.922Z,99.90
2022-10-11T08:12:48.734Z,99.90
2022-10-11T08:16:30.493Z,99.90
2022-10-11T08:20:12.464Z,99.90
2022-10-11T08:23:54.182Z,99.90
2022-10-11T08:27:36.477Z,99.90
2022-10-11T08:31:18.226Z,99.90
2022-10-11T08:35:00.052Z,99.90
2022-10-11T08:38:42.309Z,99.90
2022-10-11T08:42:38.333Z,99.90
2022-10-11T08:46:25.827Z,99.30
2022-10-11T08:50:15.136Z,97.70
2022-10-11T08:54:06.379Z,97.80
2022-10-11T08:57:53.747Z,97.70
2022-10-11T09:01:48.371Z,89.90
2022-10-11T09:05:50.416Z,75.40
2022-10-11T09:09:41.243Z,79.10
2022-10-11T09:13:31.444Z,80.10
2022-10-11T09:17:26.232Z,86.80
2022-10-11T09:21:32.907Z,73.30
2022-10-11T09:25:26.487Z,68.50
2022-10-11T09:29:29.491Z,65.20
2022-10-11T09:33:16.703Z,63.70
2022-10-11T09:37:11.381Z,67.30
2022-10-11T09:41:05.198Z,63.10
2022-10-11T09:44:49.778Z,60.50
2022-10-11T09:48:40.248Z,63.20
2022-10-11T09:52:23.867Z,55.40
2022-10-11T09:56:06.220Z,57.70
2022-10-11T10:00:01.302Z,56.50
2022-10-11T10:03:51.414Z,49.40
2022-10-11T10:07:38.301Z,52.70
2022-10-11T10:11:23.809Z,51.90
2022-10-11T10:15:17.340Z,50.50
2022-10-11T10:19:16.967Z,46.80
2022-10-11T10:23:26.648Z,44.30
2022-10-11T10:27:22.518Z,44.00
2022-10-11T10:31:20.182Z,44.10
2022-10-11T10:35:25.276Z,46.70
2022-10-11T10:39:22.394Z,42.30
2022-10-11T10:43:04.183Z,44.00
2022-10-11T10:47:10.979Z,44.60
2022-10-11T10:51:01.683Z,41.00
2022-10-11T10:55:06.868Z,40.20
2022-10-11T10:58:57.135Z,40.70
2022-10-11T11:02:58.541Z,41.80
2022-10-11T11:07:00.061Z,39.40
2022-10-11T11:10:54.618Z,39.10
2022-10-11T11:14:43.791Z,38.60
2022-10-11T11:18:31.647Z,37.60
2022-10-11T11:22:32.955Z,41.40
2022-10-11T11:26:44.567Z,40.90
2022-10-11T11:30:56.308Z,37.20
2022-10-11T11:34:53.433Z,35.80
2022-10-11T11:38:58.022Z,36.40
2022-10-11T11:42:45.603Z,36.00
2022-10-11T11:46:32.974Z,36.30
2022-10-11T11:50:19.084Z,36.10
2022-10-11T11:54:22.002Z,36.30
2022-10-11T11:58:41.661Z,35.10
2022-10-11T12:02:38.631Z,34.30
2022-10-11T12:06:29.031Z,34.60
2022-10-11T12:10:29.738Z,34.10
2022-10-11T12:14:31.999Z,33.40
2022-10-11T12:18:16.527Z,33.20
2022-10-11T12:22:16.980Z,33.80
2022-10-11T12:26:29.773Z,32.00
2022-10-11T12:30:42.703Z,32.30
2022-10-11T12:34:37.537Z,31.40
2022-10-11T12:38:22.089Z,31.70
2022-10-11T12:42:18.566Z,33.30
2022-10-11T12:46:29.196Z,32.20
2022-10-11T12:50:38.754Z,31.70
2022-10-11T12:54:40.842Z,30.90
2022-10-11T12:58:33.967Z,31.40
2022-10-11T13:02:40.512Z,31.10
2022-10-11T13:06:26.396Z,30.40
2022-10-11T13:10:08.345Z,30.70
2022-10-11T13:13:56.739Z,30.00
2022-10-11T13:17:40.093Z,29.90
2022-10-11T13:21:31.975Z,30.80
2022-10-11T13:25:37.570Z,31.50
2022-10-11T13:29:30.559Z,32.60
2022-10-11T13:33:21.385Z,32.90
2022-10-11T13:37:03.294Z,31.20
2022-10-11T13:40:48.694Z,31.80
2022-10-11T13:44:33.921Z,32.90
2022-10-11T13:48:16.757Z,33.20
2022-10-11T13:52:18.256Z,32.40
2022-10-11T13:56:04.381Z,31.30
2022-10-11T13:59:46.451Z,30.80
2022-10-11T14:03:41.622Z,31.40
2022-10-11T14:07:31.741Z,32.20
2022-10-11T14:11:14.953Z,32.80
2022-10-11T14:14:57.501Z,33.60
2022-10-11T14:18:47.712Z,34.10
2022-10-11T14:22:29.707Z,34.30
2022-10-11T14:26:18.664Z,35.10
2022-10-11T14:30:23.946Z,36.00
2022-10-11T14:34:04.326Z,36.10
2022-10-11T14:37:47.596Z,36.80
2022-10-11T14:41:29.551Z,36.70
2022-10-11T14:45:11.545Z,36.90
2022-10-11T14:48:58.158Z,38.00
2022-10-11T14:52:39.955Z,40.30
2022-10-11T14:56:22.038Z,39.20
2022-10-11T15:00:16.015Z,37.20
2022-10-11T15:03:57.744Z,35.50
2022-10-11T15:07:39.541Z,35.30
2022-10-11T15:11:22.650Z,34.80
2022-10-11T15:15:04.666Z,35.00
2022-10-11T15:18:52.726Z,34.60
2022-10-11T15:22:34.704Z,35.50
2022-10-11T15:26:19.586Z,36.50
2022-10-11T15:30:01.434Z,36.00
2022-10-11T15:33:43.547Z,35.80
2022-10-11T15:37:25.301Z,35.10
2022-10-11T15:41:08.452Z,35.20
2022-10-11T15:44:50.256Z,35.80
2022-10-11T15:48:33.062Z,34.40
2022-10-11T15:52:14.827Z,34.60
2022-10-11T15:55:59.434Z,34.40
2022-10-11T15:59:41.176Z,34.10
2022-10-11T16:03:25.644Z,34.00
2022-10-11T16:07:07.468Z,34.20
2022-10-11T16:10:49.879Z,34.30
2022-10-11T16:14:31.619Z,34.80
2022-10-11T16:18:16.021Z,36.20
2022-10-11T16:21:57.766Z,35.80
2022-10-11T16:25:40.142Z,36.00
2022-10-11T16:29:22.062Z,36.30
2022-10-11T16:33:03.921Z,36.60
2022-10-11T16:36:45.875Z,37.30
2022-10-11T16:40:29.868Z,38.00
2022-10-11T16:44:16.729Z,38.60
2022-10-11T16:47:59.628Z,39.40
2022-10-11T16:51:41.490Z,39.90
2022-10-11T16:55:23.593Z,40.30
2022-10-11T16:59:05.314Z,40.80
2022-10-11T17:02:47.072Z,41.30
2022-10-11T17:06:28.927Z,41.80
2022-10-11T17:10:10.715Z,42.30
2022-10-11T17:13:53.498Z,42.80
2022-10-11T17:17:35.353Z,44.00
2022-10-11T17:21:18.421Z,43.90
2022-10-11T17:25:03.221Z,44.60
2022-10-11T17:28:45.016Z,44.50
2022-10-11T17:32:26.842Z,45.10
2022-10-11T17:36:31.718Z,45.50
2022-10-11T17:40:13.591Z,49.70
2022-10-11T17:43:55.281Z,46.40
2022-10-11T17:47:37.035Z,46.80
2022-10-11T17:51:19.640Z,47.20
2022-10-11T17:55:01.421Z,48.00
2022-10-11T17:58:43.826Z,48.00
2022-10-11T18:02:25.627Z,48.50
2022-10-11T18:06:10.972Z,48.70
2022-10-11T18:09:52.805Z,50.10
2022-10-11T18:13:34.574Z,49.50
2022-10-11T18:17:16.679Z,49.90
2022-10-11T18:20:58.509Z,50.20
2022-10-11T18:24:41.457Z,50.70
2022-10-11T18:28:23.309Z,50.90
2022-10-11T18:32:05.221Z,51.10
2022-10-11T18:35:46.941Z,51.40
2022-10-11T18:39:28.798Z,51.60
2022-10-11T18:43:10.586Z,51.90
2022-10-11T18:46:54.001Z,52.20
2022-10-11T18:50:36.296Z,52.50
2022-10-11T18:54:21.361Z,52.70
2022-10-11T18:58:03.350Z,53.50
2022-10-11T19:01:45.966Z,53.40
2022-10-11T19:05:27.707Z,53.90
2022-10-11T19:09:12.985Z,54.10
2022-10-11T19:13:01.140Z,55.20
2022-10-11T19:16:49.141Z,55.50
2022-10-11T19:20:30.875Z,55.70
2022-10-11T19:24:12.818Z,55.30
2022-10-11T19:27:54.622Z,55.50
2022-10-11T19:31:42.291Z,55.90
2022-10-11T19:35:24.063Z,58.70
2022-10-11T19:39:06.435Z,56.30
2022-10-11T19:42:48.308Z,57.10
2022-10-11T19:46:52.091Z,57.10
2022-10-11T19:50:32.191Z,57.40
2022-10-11T19:54:15.847Z,57.80
2022-10-11T19:57:58.074Z,58.80
2022-10-11T20:01:41.299Z,58.40
2022-10-11T20:05:23.228Z,58.60
2022-10-11T20:09:28.050Z,58.70
2022-10-11T20:13:11.631Z,59.10
2022-10-11T20:16:53.394Z,59.10
2022-10-11T20:20:35.553Z,59.30
2022-10-11T20:24:17.347Z,59.50
2022-10-11T20:27:59.078Z,60.70
2022-10-11T20:31:41.826Z,61.80
2022-10-11T20:35:23.590Z,61.50
2022-10-11T20:39:06.633Z,61.70
2022-10-11T20:42:48.393Z,62.20
2022-10-11T20:46:32.824Z,62.60
2022-10-11T20:50:18.433Z,63.80
2022-10-11T20:54:04.659Z,62.90
2022-10-11T20:57:46.407Z,63.70
2022-10-11T21:01:34.532Z,64.00
2022-10-11T21:05:16.495Z,65.30
2022-10-11T21:08:59.417Z,64.20
2022-10-11T21:12:41.153Z,64.20
2022-10-11T21:16:23.146Z,63.80
2022-10-11T21:20:06.259Z,64.30
2022-10-11T21:23:48.089Z,64.20
2022-10-11T21:27:30.595Z,65.40
2022-10-11T21:31:15.294Z,65.10
2022-10-11T21:34:57.059Z,65.90
2022-10-11T21:38:39.414Z,66.30
2022-10-11T21:42:22.973Z,65.70
2022-10-11T21:46:09.806Z,65.80
2022-10-11T21:49:51.555Z,66.70
2022-10-11T21:53:33.729Z,66.50
2022-10-11T21:57:15.540Z,66.70
2022-10-11T22:00:57.284Z,66.80
2022-10-11T22:04:39.012Z,67.80
2022-10-11T22:08:20.877Z,69.30
2022-10-11T22:12:02.986Z,71.40
2022-10-11T22:15:44.792Z,72.90
2022-10-11T22:19:26.526Z,74.40
2022-10-11T22:23:08.367Z,75.00
2022-10-11T22:26:50.074Z,76.20
2022-10-11T22:30:32.630Z,77.00
2022-10-11T22:34:14.401Z,77.80
2022-10-11T22:37:57.574Z,78.80
2022-10-11T22:41:39.336Z,81.00
2022-10-11T22:45:21.163Z,82.00
2022-10-11T22:49:03.046Z,85.30
2022-10-11T22:52:44.839Z,84.70
2022-10-11T22:56:26.711Z,88.20
2022-10-11T23:00:09.143Z,91.30
2022-10-11T23:03:50.988Z,90.80
2022-10-11T23:07:32.789Z,90.60
2022-10-11T23:11:14.597Z,91.60
2022-10-11T23:14:56.372Z,92.40
2022-10-11T23:18:38.312Z,92.60
2022-10-11T23:22:20.055Z,92.30
2022-10-11T23:26:11.131Z,92.30
2022-10-11T23:29:52.915Z,96.30
2022-10-11T23:33:35.716Z,98.70
2022-10-11T23:37:17.896Z,94.00
2022-10-11T23:41:02.224Z,93.50
2022-10-11T23:44:44.379Z,96.60
2022-10-11T23:48:26.308Z,95.50
2022-10-11T23:52:08.367Z,95.60
2022-10-11T23:55:50.690Z,94.80
2022-10-11T23:59:33.901Z,95.00
